Chubu Centrair International Airport
RJGG : now visible

Airfield :











YOU CAN JOIN US ON...

 
LOGIN :

Register | Disclaimer

   EN    FR    IT 

 









Legend :    VFR   Marginal VFR   IFR   Intensive IFR   Very Intensive IFR
Visi :
Ceiling :
>= 8 km
>= 3000ft
5 to 8 km
1000 to 3000 ft
1500m to 5 km
500 to 1000 ft
800 to 1500m
200 to 500 ft
< 800m
< 200 ft
Symbols :   Thunderstorms  Fog  Heavy snow  Heavy precipitations  Wind > 20 kt






- Airport Elevation : 15 ft
- IATA code : NGO


RJGG - Chubu Centrair International

CURRENT METAR :
  • 190600Z 36007KT 7000 VCSH FEW004 SCT005 BKN008 21/19 Q1013 TEMPO FEW003 BKN005

EXPIRED METARs :
  • 190530Z 35007KT 8000 FEW004 SCT005 BKN006 21/19 Q1012 TEMPO FEW003 BKN005
  • 190500Z 36007KT 8000 VCSH FEW003 SCT004 BKN005 20/19 Q1013 NOSIG
  • 190430Z 01008KT 7000 -SHRA FEW003 SCT004 BKN005 20/19 Q1013 NOSIG
  • 190400Z 35009KT 7000 -SHRA FEW003 BKN005 BKN007 20/19 Q1013 NOSIG
  • 190330Z 34006KT 4000 SHRA BR FEW003 BKN005 BKN007 20/18 Q1013 TEMPO 3000 SHRA BR

TAF TAF RJGG
Valid from the 19 at 06:00 until the 20 at 12:00 UTC


190505Z 1906/2012 36008KT 9999 FEW020 BKN040
TEMPO 1906/1909 3000 SHRA BR FEW003 BKN005
BECMG 1907/1909 32018KT



MET'MAP, your aeronautical weather chart ! - Copyright ORBIFLY December 2007 - Disclaimer

ORBIFLY MET'MAP TEAM :

Programming & Development : Alexandra Zaïnal
Concept & Development : Baudouin d'Aumeries
Co-Development & Prog : Marc-Olivier Méhu
Technical & hardware support : Manuel Goepfert

Contact : metmap@orbifly.com




SOURCES & CREDITS :

   NOAA       Earth
Advisory